Latest Weather Observations for Bellambi

IDN60901

Issued at 4:31 pm EST Monday 3 August 2015 (issued every 10 minutes, with the page automatically refreshed every 10 minutes)

About weather observations | Map of Sydney area stations | Latest observations for Sydney area | Other Formats
Station Details ID: 068228 Name: BELLAMBI AWS Lat: -34.37 Lon: 150.93 Height: 10.0 m
Data from the previous 72 hours. | See also: Recent months at Bellambi
Date/Time
EST
Tmp

°C
App
Tmp
°C
Dew
Point
°C
Rel
Hum
%
Delta-T

°C
Wind Press
QNH
hPa
Press
MSL
hPa
Rain
since
9 am
mm
Dir
 
Spd
km/h
Gust
km/h
Spd
kts
Gust
kts
03/04:30pm 14.4 7.0 2.0 43 5.4 W 30 46 16 25 - - 0.0
03/04:07pm 14.7 7.6 1.3 40 5.8 WSW 28 48 15 26 - - 0.0
03/04:00pm 14.9 8.6 1.8 41 5.7 WSW 24 33 13 18 - - 0.0
03/03:30pm 15.5 9.3 2.0 40 6.0 W 24 43 13 23 - - 0.0
03/03:03pm 15.7 8.7 1.8 39 6.1 W 28 46 15 25 - - 0.0
03/03:00pm 15.9 9.2 1.6 38 6.3 W 26 41 14 22 - - 0.0
03/02:34pm 16.0 9.0 2.1 39 6.2 W 28 46 15 25 - - 0.0
03/02:30pm 15.9 8.1 2.0 39 6.2 W 32 46 17 25 - - 0.0
03/02:24pm 16.0 9.0 1.7 38 6.3 W 28 46 15 25 - - 0.0
03/02:00pm 16.3 10.2 2.7 40 6.2 W 24 41 13 22 - - 0.0
03/01:30pm 16.2 9.2 2.2 39 6.3 W 28 46 15 25 - - 0.0
03/01:11pm 16.0 9.0 2.1 39 6.2 W 28 48 15 26 - - 0.0
03/01:00pm 16.1 9.9 2.2 39 6.2 WSW 24 39 13 21 - - 0.0
03/12:30pm 15.7 7.9 1.8 39 6.1 W 32 54 17 29 - - 0.0
03/12:21pm 15.8 8.4 1.9 39 6.2 W 30 48 16 26 - - 0.0
03/12:14pm 15.6 8.6 1.7 39 6.1 W 28 44 15 24 - - 0.0
03/12:00pm 15.7 10.3 2.2 40 6.0 W 20 35 11 19 - - 0.0
03/11:42am 15.7 9.2 2.5 41 5.9 WNW 26 48 14 26 - - 0.0
03/11:30am 15.7 9.5 2.2 40 6.0 WNW 24 46 13 25 - - 0.0
03/11:00am 15.5 9.8 2.7 42 5.8 W 22 33 12 18 - - 0.0
03/10:30am 15.0 9.4 1.5 40 5.9 WNW 20 32 11 17 - - 0.0
03/10:00am 14.6 8.3 1.5 41 5.7 W 24 32 13 17 - - 0.0
03/09:30am 14.2 9.4 2.5 45 5.2 WNW 17 33 9 18 - - 0.0
03/09:00am 13.5 8.2 2.1 46 5.0 W 19 30 10 16 - - 0.0
03/08:30am 12.8 8.3 2.1 48 4.6 W 15 26 8 14 - - 0.0
03/08:00am 11.9 8.5 1.8 50 4.3 WSW 9 19 5 10 - - 0.0
03/07:30am 11.5 7.7 1.5 50 4.2 WNW 11 22 6 12 - - 0.0
03/07:00am 10.8 6.9 1.4 52 3.9 WSW 11 20 6 11 - - 0.0
03/06:30am 10.7 7.2 1.3 52 3.9 W 9 20 5 11 - - 0.0
03/06:00am 10.1 6.5 0.7 52 3.8 SW 9 19 5 10 - - 0.0
03/05:30am 10.6 6.6 0.6 50 4.1 WSW 11 19 6 10 - - 0.0
03/05:00am 10.4 6.8 0.4 50 4.1 WSW 9 19 5 10 - - 0.0
03/04:30am 10.4 6.4 0.2 49 4.1 WSW 11 20 6 11 - - 0.0
03/04:00am 10.1 6.1 0.2 50 4.0 SW 11 19 6 10 - - 0.0
03/03:30am 10.1 6.0 -0.1 49 4.1 SW 11 24 6 13 - - 0.0
03/03:00am 10.1 5.3 0.2 50 4.0 SW 15 26 8 14 - - 0.0
03/02:30am 10.0 4.8 0.1 50 4.0 SW 17 26 9 14 - - 0.0
03/02:00am 10.2 5.0 0.3 50 4.0 SW 17 30 9 16 - - 0.0
03/01:30am 10.4 4.8 0.2 49 4.1 SW 19 28 10 15 - - 0.0
03/01:00am 11.1 5.6 0.5 48 4.4 SSW 19 28 10 15 - - 0.0
03/12:30am 11.1 5.2 1.9 53 3.9 SSW 22 30 12 16 - - 0.0
03/12:00am 11.1 7.1 0.5 48 4.4 SW 11 20 6 11 - - 0.0
 
Date/Time
EST
Tmp

°C
App
Tmp
°C
Dew
Point
°C
Rel
Hum
%
Delta-T

°C
Wind Press
QNH
hPa
Press
MSL
hPa
Rain
since
9 am
mm
Dir
 
Spd
km/h
Gust
km/h
Spd
kts
Gust
kts
02/11:30pm 12.3 8.0 1.0 46 4.8 SW 13 19 7 10 - - 0.0
02/11:00pm 13.4 10.4 4.0 53 4.3 WSW 9 13 5 7 - - 0.0
02/10:30pm 14.2 9.4 4.8 53 4.4 W 19 37 10 20 - - 0.0
02/10:00pm 14.9 12.2 5.7 54 4.4 SE 9 17 5 9 - - 0.0
02/09:30pm 15.5 11.4 6.2 54 4.5 W 17 43 9 23 - - 0.0
02/09:00pm 16.1 9.3 7.1 55 4.5 W 32 54 17 29 - - 0.0
02/08:30pm 16.5 5.8 8.0 57 4.3 WNW 54 78 29 42 - - 0.0
02/08:00pm 16.8 6.2 8.5 58 4.2 NW 54 76 29 41 - - 0.0
02/07:35pm 17.5 8.0 8.4 55 4.7 WNW 48 72 26 39 - - 0.0
02/07:30pm 17.6 8.4 8.2 54 4.8 WNW 46 63 25 34 - - 0.0
02/07:23pm 17.9 9.1 8.2 53 5.0 WNW 44 63 24 34 - - 0.0
02/07:00pm 18.7 9.7 7.2 47 5.8 NW 44 61 24 33 - - 0.0
02/06:30pm 19.6 10.1 6.7 43 6.5 NW 46 69 25 37 - - 0.0
02/06:09pm 19.7 12.7 6.1 41 6.8 NW 32 50 17 27 - - 0.0
02/06:00pm 19.8 13.9 5.8 40 6.9 WNW 26 35 14 19 - - 0.0
02/05:30pm 20.5 15.3 5.7 38 7.3 WNW 22 35 12 19 - - 0.0
02/05:00pm 21.1 16.0 5.9 37 7.6 WNW 22 30 12 16 - - 0.0
02/04:30pm 22.2 16.6 5.2 33 8.4 WNW 24 37 13 20 - - 0.0
02/04:00pm 22.6 17.2 6.4 35 8.3 NW 24 33 13 18 - - 0.0
02/03:41pm 22.6 16.6 7.2 37 8.0 NW 28 46 15 25 - - 0.0
02/03:30pm 22.8 15.9 6.6 35 8.3 NW 32 43 17 23 - - 0.0
02/03:00pm 22.6 14.9 7.2 37 8.0 NNW 37 48 20 26 - - 0.0
02/02:36pm 22.3 15.0 8.8 42 7.2 NNW 37 56 20 30 - - 0.0
02/02:30pm 22.2 14.2 9.0 43 7.0 NNW 41 56 22 30 - - 0.0
02/02:07pm 21.7 12.9 7.2 39 7.5 NNW 43 61 23 33 - - 0.0
02/02:00pm 22.0 14.3 8.5 42 7.1 NNW 39 50 21 27 - - 0.0
02/01:30pm 20.8 14.0 10.6 52 5.6 NW 37 52 20 28 - - 0.0
02/01:21pm 19.1 13.8 11.2 60 4.3 NNW 30 43 16 23 - - 0.0
02/01:00pm 16.4 13.7 12.9 80 1.9 NNE 19 24 10 13 - - 0.0
02/12:30pm 17.4 16.0 13.3 77 2.3 NNE 13 17 7 9 - - 0.0
02/12:00pm 17.1 16.1 12.4 74 2.6 NNE 9 13 5 7 - - 0.0
02/11:30am 17.4 16.9 13.7 79 2.1 NNE 9 13 5 7 - - 0.0
02/11:00am 17.3 16.7 13.6 79 2.1 NE 9 11 5 6 - - 0.0
02/10:30am 15.7 14.4 12.5 81 1.8 NNE 11 15 6 8 - - 0.0
02/10:00am 16.1 15.5 12.3 78 2.1 ESE 7 7 4 4 - - 0.0
02/09:30am 16.6 16.3 12.8 78 2.1 ESE 6 7 3 4 - - 0.0
02/09:00am 15.5 14.2 11.3 76 2.3 NE 9 9 5 5 - - 0.0
02/08:30am 14.8 14.2 12.3 85 1.4 SSW 7 11 4 6 - - 0.0
02/08:00am 13.6 11.6 11.5 87 1.1 SSW 13 17 7 9 - - 0.0
02/07:30am 13.6 12.0 11.5 87 1.1 SW 11 15 6 8 - - 0.0
02/07:00am 13.4 11.7 11.1 86 1.2 WSW 11 13 6 7 - - 0.0
02/06:30am 13.5 12.1 11.0 85 1.3 W 9 11 5 6 - - 0.0
02/06:27am 13.4 12.0 10.8 84 1.4 W 9 11 5 6 - - 0.0
02/06:00am 13.6 11.9 11.1 85 1.3 SW 11 13 6 7 - - 0.0
02/05:52am 13.5 11.7 10.9 84 1.4 WSW 11 13 6 7 - - 0.0
02/05:30am 13.7 12.8 10.7 82 1.6 WNW 6 11 3 6 - - 0.0
02/05:00am 14.1 13.1 11.1 82 1.6 SW 7 9 4 5 - - 0.0
02/04:30am 14.2 13.3 10.8 80 1.8 WNW 6 11 3 6 - - 0.0
02/04:00am 14.9 14.1 11.7 81 1.7 S 7 9 4 5 - - 0.0
02/03:30am 15.0 14.2 11.8 81 1.7 S 7 11 4 6 - - 0.0
02/03:00am 15.1 13.6 11.9 81 1.7 SSE 11 13 6 7 - - 0.0
02/02:30am 15.2 13.4 12.0 81 1.7 SSE 13 17 7 9 - - 0.0
02/02:00am 15.5 13.9 11.7 78 2.1 SSE 11 15 6 8 - - 0.0
02/01:30am 15.9 13.0 10.9 72 2.7 S 17 24 9 13 - - 0.0
02/01:00am 15.9 12.3 6.6 54 4.5 SSW 15 20 8 11 - - 0.0
02/12:30am 16.5 12.8 4.5 45 5.6 WNW 13 15 7 8 - - 0.0
02/12:00am 16.1 11.8 5.4 49 5.1 NW 17 20 9 11 - - 0.0
 
Date/Time
EST
Tmp

°C
App
Tmp
°C
Dew
Point
°C
Rel
Hum
%
Delta-T

°C
Wind Press
QNH
hPa
Press
MSL
hPa
Rain
since
9 am
mm
Dir
 
Spd
km/h
Gust
km/h
Spd
kts
Gust
kts
01/11:30pm 16.5 12.0 6.9 53 4.7 NNW 20 24 11 13 - - 0.0
01/11:00pm 16.6 12.7 7.0 53 4.8 NNW 17 20 9 11 - - 0.0
01/10:30pm 17.0 12.5 6.8 51 5.0 NNW 20 24 11 13 - - 0.0
01/10:00pm 16.4 11.9 7.1 54 4.6 NNW 20 30 11 16 - - 0.0
01/09:30pm 15.7 12.9 5.3 50 4.9 NW 9 13 5 7 - - 0.0
01/09:00pm 16.2 13.0 5.2 48 5.2 NW 11 13 6 7 - - 0.0
01/08:30pm 16.6 13.1 5.3 47 5.4 NW 13 17 7 9 - - 0.0
01/08:00pm 16.8 13.5 4.8 45 5.7 NW 11 15 6 8 - - 0.0
01/07:30pm 16.4 14.0 4.4 45 5.6 NW 6 7 3 4 - - 0.0
01/07:00pm 15.8 14.4 5.4 50 5.0 WNW 2 7 1 4 - - 0.0
01/06:30pm 16.8 14.5 5.7 48 5.4 NW 7 9 4 5 - - 0.0
01/06:00pm 17.3 14.2 7.4 52 5.0 N 13 15 7 8 - - 0.0
01/05:30pm 17.8 13.8 8.1 53 5.0 N 19 24 10 13 - - 0.0
01/05:00pm 18.8 14.3 6.0 43 6.3 N 19 24 10 13 - - 0.0
01/04:30pm 19.6 14.7 4.9 38 7.1 N 20 28 11 15 - - 0.0
01/04:00pm 19.9 15.0 5.2 38 7.2 N 20 33 11 18 - - 0.0
01/03:30pm 19.8 14.1 5.1 38 7.2 NNW 24 35 13 19 - - 0.0
01/03:00pm 20.5 16.2 5.3 37 7.5 NNE 17 28 9 15 - - 0.0
01/02:30pm 19.8 15.0 5.5 39 7.0 NNW 20 46 11 25 - - 0.0
01/02:00pm 19.7 14.8 5.0 38 7.2 N 20 30 11 16 - - 0.0
01/01:30pm 19.8 12.5 4.3 36 7.4 NNW 32 52 17 28 - - 0.0
01/01:29pm 19.8 12.2 3.1 33 7.8 NNW 32 52 17 28 - - 0.0
01/01:00pm 19.3 11.6 3.5 35 7.4 NNW 33 46 18 25 - - 0.0
01/12:30pm 19.8 11.4 5.8 40 6.9 NNW 39 50 21 27 - - 0.0
01/12:00pm 20.5 11.4 5.7 38 7.3 NW 43 57 23 31 - - 0.0
01/11:30am 20.3 11.8 5.1 37 7.4 WNW 39 59 21 32 - - 0.0
01/11:22am 20.0 13.2 5.3 38 7.2 WNW 30 56 16 30 - - 0.0
01/11:20am 20.0 13.5 4.9 37 7.3 W 28 56 15 30 - - 0.0
01/11:00am 19.0 13.8 5.5 41 6.6 E 22 32 12 17 - - 0.0
01/10:30am 18.3 13.7 5.5 43 6.2 N 19 33 10 18 - - 0.0
01/10:07am 17.1 10.4 5.7 47 5.5 NW 30 50 16 27 - - 0.0
01/10:00am 16.3 11.0 5.0 47 5.4 NW 22 41 12 22 - - 0.0
01/09:30am 15.1 10.2 5.3 52 4.6 NW 20 26 11 14 - - 0.0
01/09:00am 15.3 10.9 4.7 49 5.0 NW 17 24 9 13 - - 0.0
01/08:30am 13.7 11.2 4.8 55 4.1 WNW 7 15 4 8 - - 0.0
01/08:00am 13.2 9.4 5.9 61 3.4 NNE 15 20 8 11 - - 0.0
01/07:30am 12.9 8.9 4.8 58 3.7 NNE 15 19 8 10 - - 0.0
01/07:00am 13.0 8.2 5.7 61 3.4 NNE 20 28 11 15 - - 0.0
01/06:30am 12.9 7.8 6.0 63 3.3 NNE 22 32 12 17 - - 0.0
01/06:00am 12.4 8.6 5.6 63 3.2 N 15 22 8 12 - - 0.0
01/05:30am 12.1 8.7 5.9 66 2.9 NNW 13 20 7 11 - - 0.0
01/05:00am 12.8 8.6 5.7 62 3.3 N 17 22 9 12 - - 0.0
01/04:30am 12.7 8.0 6.1 64 3.1 NNW 20 26 11 14 - - 0.0
01/04:00am 11.7 7.7 5.1 64 3.0 NW 15 17 8 9 - - 0.0
01/03:30am 11.0 8.2 5.1 67 2.7 WNW 9 11 5 6 - - 0.0
01/03:00am 11.2 9.5 6.1 71 2.4 N 4 7 2 4 - - 0.0
01/02:30am 11.1 9.5 6.3 72 2.2 N 4 9 2 5 - - 0.0
01/02:00am 12.1 8.5 6.8 70 2.5 NW 15 20 8 11 - - 0.0
01/01:30am 11.7 8.1 6.6 71 2.4 WNW 15 19 8 10 - - 0.0
01/01:00am 11.2 9.1 6.7 74 2.1 WNW 7 11 4 6 - - 0.0
01/12:30am 11.6 8.5 7.1 74 2.2 NNW 13 17 7 9 - - 0.0
01/12:00am 12.8 9.6 8.3 74 2.2 NNW 15 19 8 10 - - 0.0
 
Date/Time
EST
Tmp

°C
App
Tmp
°C
Dew
Point
°C
Rel
Hum
%
Delta-T

°C
Wind Press
QNH
hPa
Press
MSL
hPa
Rain
since
9 am
mm
Dir
 
Spd
km/h
Gust
km/h
Spd
kts
Gust
kts
31/11:30pm 11.7 9.0 7.2 74 2.2 NW 11 13 6 7 - - 0.0
31/11:00pm 11.7 8.6 7.2 74 2.2 WNW 13 17 7 9 - - 0.0
31/10:30pm 11.1 8.3 6.8 75 2.0 W 11 13 6 7 - - 0.0
31/10:00pm 12.1 9.8 7.4 73 2.3 WNW 9 11 5 6 - - 0.0
31/09:30pm 12.3 10.0 7.4 72 2.4 WNW 9 11 5 6 - - 0.0
31/09:00pm 12.1 9.4 7.4 73 2.3 WNW 11 13 6 7 - - 0.0
31/08:30pm 12.0 9.7 7.3 73 2.3 WNW 9 11 5 6 - - 0.0
31/08:00pm 12.0 9.7 7.3 73 2.3 WNW 9 9 5 5 - - 0.0
31/07:30pm 12.5 10.6 7.6 72 2.4 WNW 7 9 4 5 - - 0.0
31/07:00pm 12.8 12.1 7.0 68 2.8 CALM 0 6 0 3 - - 0.0
31/06:30pm 14.2 12.1 8.2 67 3.0 NE 9 13 5 7 - - 0.0
31/06:00pm 14.7 11.5 8.4 66 3.2 E 15 17 8 9 - - 0.0
31/05:30pm 15.0 11.9 8.7 66 3.2 ESE 15 19 8 10 - - 0.0
31/05:00pm 15.0 12.0 7.5 61 3.7 E 13 17 7 9 - - 0.0

Latest Capital City Observations: Canberra | Sydney | Melbourne | Brisbane | Adelaide | Perth | Hobart | Darwin

Other Formats:

Comma delimited format used in spreadsheet applications
http://www.bom.gov.au/fwo/IDN60901/IDN60901.94749.axf

JavaScript Object Notation format (JSON) in row-major order
http://www.bom.gov.au/fwo/IDN60901/IDN60901.94749.json